Time;durP1;ratioP1;P1;durP2;ratioP2;P2;SDS_P1;SDS_P2;PMS_P1;PMS_P2;Temp;Humidity;BMP_temperature;BMP_pressure;BME280_temperature;BME280_humidity;BME280_pressure;Samples;Min_cycle;Max_cycle;Signal;HPM_P1;HPM_P2
2022/06/13 06:59:55;;;;;;;12.48;5.60;;;13.80;99.90;;;;;;5070648;28;20195;-80
2022/06/13 07:02:23;;;;;;;13.15;5.88;;;13.90;99.90;;;;;;5070547;28;20161;-79
2022/06/13 07:04:58;;;;;;;9.38;5.97;;;14.00;99.90;;;;;;5070488;28;20173;-79
2022/06/13 07:07:24;;;;;;;7.80;6.82;;;14.10;99.90;;;;;;5070483;28;20171;-78
2022/06/13 07:09:49;;;;;;;7.32;5.72;;;14.10;99.90;;;;;;5070412;28;20160;-79
2022/06/13 07:12:15;;;;;;;13.88;6.30;;;14.10;99.90;;;;;;5070252;28;20204;-81
2022/06/13 07:14:41;;;;;;;11.38;6.95;;;14.20;99.90;;;;;;5070282;28;20215;-89
2022/06/13 07:17:08;;;;;;;15.90;7.95;;;14.30;99.90;;;;;;5069457;28;20188;-91
2022/06/13 07:19:34;;;;;;;10.05;6.68;;;14.30;99.90;;;;;;5070612;28;20703;-83
2022/06/13 07:22:01;;;;;;;9.52;6.75;;;14.40;99.90;;;;;;5070162;28;20260;-86
2022/06/13 07:24:27;;;;;;;14.02;7.00;;;14.30;99.90;;;;;;5070205;28;20176;-80
2022/06/13 07:26:54;;;;;;;13.40;6.90;;;14.30;99.90;;;;;;5068785;28;20172;-76
2022/06/13 07:29:21;;;;;;;14.02;6.18;;;14.30;99.90;;;;;;5069960;28;20617;-76
2022/06/13 07:31:52;;;;;;;10.23;6.32;;;14.40;99.90;;;;;;5069982;28;20632;-75
2022/06/13 07:34:21;;;;;;;10.98;6.32;;;14.40;99.90;;;;;;5070004;28;20633;-75
2022/06/13 07:36:51;;;;;;;10.80;6.65;;;14.50;99.90;;;;;;5069875;28;20207;-75
2022/06/13 07:39:17;;;;;;;15.52;6.65;;;14.40;99.90;;;;;;5069697;28;20298;-75
2022/06/13 07:41:44;;;;;;;12.73;7.07;;;14.40;99.90;;;;;;5069717;28;20259;-78
2022/06/13 07:44:23;;;;;;;10.93;6.78;;;14.40;99.90;;;;;;5069766;28;20184;-73
2022/06/13 07:46:50;;;;;;;12.18;6.70;;;14.40;99.90;;;;;;5069681;28;20207;-76
2022/06/13 07:49:17;;;;;;;20.10;7.30;;;14.40;99.90;;;;;;5069654;28;20179;-77
2022/06/13 07:51:43;;;;;;;18.17;7.63;;;14.50;99.90;;;;;;5069576;28;20299;-75
2022/06/13 07:54:09;;;;;;;15.90;7.10;;;14.60;99.90;;;;;;5067945;28;20311;-78
2022/06/13 07:56:36;;;;;;;15.95;8.50;;;14.70;99.90;;;;;;5069421;28;20255;-75
2022/06/13 07:59:02;;;;;;;14.32;9.07;;;14.80;99.90;;;;;;5068080;28;20173;-83
2022/06/13 08:01:29;;;;;;;22.15;10.10;;;15.00;99.90;;;;;;5069292;28;20164;-86
2022/06/13 08:03:55;;;;;;;18.13;9.48;;;15.00;99.90;;;;;;5065913;28;20174;-85
2022/06/13 08:06:22;;;;;;;21.77;10.13;;;15.00;99.90;;;;;;5054845;28;20539;-84
2022/06/13 08:08:49;;;;;;;23.92;11.57;;;15.00;99.90;;;;;;5056060;28;20184;-87
2022/06/13 08:11:17;;;;;;;17.60;11.77;;;15.10;99.90;;;;;;5055937;28;20692;-87
2022/06/13 08:13:43;;;;;;;27.10;12.90;;;15.30;99.90;;;;;;5055897;28;20298;-87
2022/06/13 08:16:10;;;;;;;25.60;13.38;;;15.30;99.90;;;;;;5056012;28;20181;-77
2022/06/13 08:18:36;;;;;;;24.83;12.15;;;15.20;99.90;;;;;;5055839;28;20165;-82
2022/06/13 08:21:03;;;;;;;25.63;12.15;;;15.20;99.90;;;;;;5054559;28;20176;-80
2022/06/13 08:23:28;;;;;;;27.45;12.68;;;15.30;99.90;;;;;;5055687;28;20634;-80
2022/06/13 08:25:54;;;;;;;28.77;13.82;;;15.30;99.90;;;;;;5055749;28;20188;-80
2022/06/13 08:28:20;;;;;;;24.92;13.05;;;15.40;99.90;;;;;;5055676;28;20169;-82
2022/06/13 08:30:56;;;;;;;24.58;13.93;;;15.60;99.90;;;;;;5055582;28;20643;-81
2022/06/13 08:33:23;;;;;;;21.15;12.60;;;15.50;99.90;;;;;;5054233;28;20208;-82
2022/06/13 08:35:49;;;;;;;20.58;13.00;;;15.60;99.90;;;;;;5055426;28;20204;-87
2022/06/13 08:38:16;;;;;;;29.23;14.25;;;15.50;99.90;;;;;;5055488;28;20157;-80
2022/06/13 08:40:48;;;;;;;19.35;12.85;;;15.50;99.90;;;;;;5055316;28;20184;-83
2022/06/13 08:43:37;;;;;;;25.65;13.63;;;15.50;99.90;;;;;;5055435;28;20595;-82
2022/06/13 08:46:30;;;;;;;25.80;14.38;;;15.50;99.90;;;;;;5055387;28;20234;-83
2022/06/13 08:49:10;;;;;;;26.45;13.32;;;15.70;99.90;;;;;;5053948;28;20256;-83
2022/06/13 08:51:48;;;;;;;22.83;13.50;;;15.90;99.90;;;;;;5054032;28;20207;-87
2022/06/13 08:54:26;;;;;;;25.65;13.77;;;15.70;99.90;;;;;;5054977;28;20753;-87
2022/06/13 08:56:53;;;;;;;28.35;13.50;;;15.90;99.90;;;;;;5053972;28;20199;-81
2022/06/13 08:59:44;;;;;;;24.60;10.98;;;15.70;99.90;;;;;;5055134;28;20681;-84
2022/06/13 09:02:25;;;;;;;16.35;9.55;;;15.80;99.90;;;;;;5054463;28;20207;-79
2022/06/13 09:04:53;;;;;;;23.95;10.70;;;15.90;99.90;;;;;;5054927;28;20246;-72
2022/06/13 09:07:33;;;;;;;27.73;11.00;;;16.30;99.90;;;;;;5054922;28;20177;-72
2022/06/13 09:10:37;;;;;;;14.40;10.30;;;16.50;99.90;;;;;;5054926;28;20171;-83
2022/06/13 09:13:32;;;;;;;15.48;8.38;;;16.50;99.90;;;;;;5054321;28;20205;-85
2022/06/13 09:16:20;;;;;;;13.63;8.88;;;16.40;99.90;;;;;;5054029;28;20180;-84
2022/06/13 09:18:57;;;;;;;16.15;9.50;;;16.20;99.90;;;;;;5054820;28;20262;-81
2022/06/13 09:21:41;;;;;;;14.98;8.80;;;16.20;99.90;;;;;;5054730;28;20165;-83
2022/06/13 09:24:16;;;;;;;12.30;8.85;;;16.10;99.90;;;;;;5053352;28;20176;-81
2022/06/13 09:26:48;;;;;;;19.90;10.95;;;16.00;99.90;;;;;;5053401;28;20185;-78
2022/06/13 09:29:26;;;;;;;17.40;10.13;;;16.20;99.90;;;;;;5054474;28;20637;-79
2022/06/13 09:32:12;;;;;;;18.75;11.98;;;16.20;99.90;;;;;;5054561;28;20219;-78
2022/06/13 09:34:52;;;;;;;17.17;11.35;;;16.30;99.90;;;;;;5053073;28;20180;-77
2022/06/13 09:37:32;;;;;;;14.88;11.00;;;16.40;99.90;;;;;;5054330;28;20169;-79
2022/06/13 09:39:58;;;;;;;17.95;9.93;;;16.60;99.90;;;;;;5054253;28;20227;-79
2022/06/13 09:42:27;;;;;;;19.58;10.52;;;16.70;99.90;;;;;;5054210;28;20266;-80
2022/06/13 09:45:08;;;;;;;14.73;9.57;;;16.70;99.90;;;;;;5054232;28;20165;-82
2022/06/13 09:47:45;;;;;;;15.27;10.82;;;16.80;99.90;;;;;;5054172;28;20208;-79
2022/06/13 09:50:25;;;;;;;15.95;10.07;;;17.00;99.90;;;;;;5054122;28;20662;-81
2022/06/13 09:52:57;;;;;;;15.43;10.20;;;17.00;99.90;;;;;;5053755;28;20224;-80
2022/06/13 09:55:49;;;;;;;18.13;9.52;;;17.10;99.90;;;;;;5054061;28;20553;-80
2022/06/13 09:58:27;;;;;;;13.77;9.25;;;17.00;99.90;;;;;;5053954;28;20171;-78
2022/06/13 10:01:12;;;;;;;21.73;10.57;;;16.90;99.90;;;;;;5053917;28;20172;-77
2022/06/13 10:03:54;;;;;;;12.32;9.32;;;16.80;99.90;;;;;;5053893;28;20515;-78
2022/06/13 10:06:36;;;;;;;14.43;8.90;;;16.50;99.90;;;;;;5053838;28;20165;-79
2022/06/13 10:09:19;;;;;;;12.82;7.30;;;16.30;99.90;;;;;;5052645;28;20168;-78
2022/06/13 10:12:09;;;;;;;14.55;7.40;;;16.40;99.90;;;;;;5053760;28;20173;-79
2022/06/13 10:14:58;;;;;;;10.88;7.65;;;16.40;99.90;;;;;;5053693;28;20177;-81
2022/06/13 10:17:56;;;;;;;13.02;6.65;;;16.30;99.90;;;;;;5053666;28;20172;-78
2022/06/13 10:20:34;;;;;;;11.85;6.00;;;16.30;99.90;;;;;;5053365;28;20161;-78
2022/06/13 10:23:27;;;;;;;11.48;6.78;;;16.30;99.90;;;;;;5052294;28;20173;-68
2022/06/13 10:26:03;;;;;;;13.10;5.88;;;16.20;99.90;;;;;;5053583;28;20362;-68
2022/06/13 10:28:57;;;;;;;8.48;6.00;;;16.20;99.90;;;;;;5053274;28;20169;-68
2022/06/13 10:31:35;;;;;;;10.10;6.35;;;16.30;99.90;;;;;;5053506;28;20175;-68
2022/06/13 10:34:26;;;;;;;7.82;5.60;;;16.20;99.90;;;;;;5053334;28;20236;-68
2022/06/13 10:36:57;;;;;;;17.73;5.55;;;16.40;99.90;;;;;;5053290;28;20169;-68
2022/06/13 10:39:25;;;;;;;10.50;5.43;;;16.50;99.90;;;;;;5053342;28;20216;-69
2022/06/13 10:42:00;;;;;;;10.18;5.32;;;16.80;99.90;;;;;;5052021;28;20223;-69
2022/06/13 10:44:26;;;;;;;8.15;4.07;;;17.10;99.90;;;;;;5053298;28;20215;-68
2022/06/13 10:46:56;;;;;;;11.50;4.70;;;17.20;99.90;;;;;;5053188;28;20165;-68
2022/06/13 10:49:36;;;;;;;11.57;4.32;;;17.30;99.90;;;;;;5052963;28;20638;-68
2022/06/13 10:52:14;;;;;;;7.97;4.35;;;17.40;99.90;;;;;;5052899;28;20168;-82
2022/06/13 10:54:44;;;;;;;6.95;3.58;;;17.40;99.90;;;;;;5053185;28;20248;-80
2022/06/13 10:57:17;;;;;;;8.15;4.30;;;17.70;99.90;;;;;;5053215;28;20175;-80
2022/06/13 10:59:43;;;;;;;5.05;4.28;;;17.80;99.90;;;;;;5053160;28;20591;-80
2022/06/13 11:02:17;;;;;;;14.52;5.20;;;17.80;99.90;;;;;;5053123;28;20523;-76
2022/06/13 11:04:43;;;;;;;9.30;4.55;;;17.60;99.90;;;;;;5052994;28;20173;-78
2022/06/13 11:07:14;;;;;;;8.93;4.88;;;17.40;99.90;;;;;;5053144;28;20165;-80
2022/06/13 11:09:49;;;;;;;11.45;4.80;;;17.10;99.90;;;;;;5052998;28;20165;-80
2022/06/13 11:12:25;;;;;;;6.13;5.43;;;17.10;99.90;;;;;;5052988;28;20732;-77
2022/06/13 11:23:56;;;;;;;14.93;4.72;;;16.70;99.90;;;;;;5061146;28;20188;-78
2022/06/13 11:29:14;;;;;;;6.15;3.63;;;16.80;99.90;;;;;;5052968;28;20226;-82
2022/06/13 11:31:57;;;;;;;5.60;3.38;;;17.00;99.90;;;;;;5052825;28;20188;-79
2022/06/13 11:34:33;;;;;;;7.85;4.22;;;17.30;99.90;;;;;;5052751;28;20208;-81
2022/06/13 11:37:02;;;;;;;10.23;3.47;;;17.30;99.90;;;;;;5052901;28;20161;-81
2022/06/13 11:39:49;;;;;;;4.43;2.63;;;17.50;99.90;;;;;;5053862;28;20168;-81
2022/06/13 11:42:27;;;;;;;3.45;2.65;;;17.60;99.90;;;;;;5055789;28;20180;-85
2022/06/13 11:44:59;;;;;;;5.15;2.60;;;17.60;99.90;;;;;;5055068;28;20172;-82
2022/06/13 11:47:26;;;;;;;7.10;2.67;;;17.70;99.90;;;;;;5056380;28;20161;-82
2022/06/13 11:49:57;;;;;;;3.45;2.55;;;17.80;99.90;;;;;;5056934;28;20199;-95
2022/06/13 11:55:31;;;;;;;4.05;2.60;;;17.90;99.90;;;;;;5056497;28;20213;-82
2022/06/13 11:57:59;;;;;;;3.13;2.50;;;18.00;99.90;;;;;;5054794;28;20195;-82
2022/06/13 12:00:45;;;;;;;5.25;2.35;;;18.20;99.90;;;;;;5056010;28;20259;-74
2022/06/13 12:03:23;;;;;;;2.20;2.00;;;18.40;99.90;;;;;;5054494;28;20254;-79
2022/06/13 12:06:10;;;;;;;2.58;2.20;;;18.50;99.90;;;;;;5055992;28;20191;-78
2022/06/13 12:08:36;;;;;;;2.70;2.40;;;18.40;99.90;;;;;;5055824;28;20173;-77
2022/06/13 12:11:13;;;;;;;4.85;2.20;;;18.50;99.90;;;;;;5055950;28;20180;-76
2022/06/13 12:13:42;;;;;;;6.30;2.30;;;18.60;99.90;;;;;;5055961;28;20204;-76
2022/06/13 12:16:24;;;;;;;5.82;2.33;;;18.20;99.90;;;;;;5055902;28;20189;-78
2022/06/13 12:19:28;;;;;;;3.05;2.13;;;18.00;99.90;;;;;;5054566;28;20173;-80
2022/06/13 12:22:31;;;;;;;2.60;1.88;;;17.90;99.90;;;;;;5054464;28;20200;-79
2022/06/13 12:25:09;;;;;;;2.10;1.73;;;18.10;99.90;;;;;;5054334;28;20169;-79
2022/06/13 12:28:23;;;;;;;3.65;2.00;;;18.20;99.90;;;;;;5055655;28;20571;-79
2022/06/13 12:31:19;;;;;;;2.58;1.50;;;18.10;99.90;;;;;;5052513;28;20642;-82
2022/06/13 12:33:56;;;;;;;2.22;2.00;;;18.20;99.90;;;;;;5055126;28;20212;-82
2022/06/13 12:36:50;;;;;;;2.70;1.88;;;18.40;99.90;;;;;;5055447;28;20188;-82
2022/06/13 12:39:42;;;;;;;4.00;1.95;;;18.70;99.90;;;;;;5055453;28;20173;-85
2022/06/13 12:42:11;;;;;;;3.72;2.05;;;18.90;99.90;;;;;;5055300;28;20167;-81
2022/06/13 12:45:13;;;;;;;2.08;1.70;;;18.80;99.90;;;;;;5055371;28;20627;-81
2022/06/13 12:47:53;;;;;;;6.57;1.85;;;18.80;99.90;;;;;;5055352;28;20168;-79
2022/06/13 12:50:34;;;;;;;7.70;2.83;;;18.90;99.90;;;;;;5055204;28;20626;-82
2022/06/13 12:53:39;;;;;;;3.45;1.77;;;18.90;99.90;;;;;;5055099;28;20588;-81
2022/06/13 12:56:24;;;;;;;3.05;1.92;;;18.70;99.90;;;;;;5055071;28;20497;-81
2022/06/13 12:59:15;;;;;;;4.78;1.83;;;18.50;99.90;;;;;;5055165;28;20165;-80
2022/06/13 13:01:47;;;;;;;2.40;1.42;;;18.50;99.90;;;;;;5055139;28;20284;-82
2022/06/13 13:04:39;;;;;;;4.45;1.27;;;18.40;99.90;;;;;;5055312;28;20526;-80
2022/06/13 13:07:08;;;;;;;1.52;1.50;;;18.30;99.90;;;;;;5054954;28;20204;-82
2022/06/13 13:09:51;;;;;;;2.30;2.10;;;18.60;99.90;;;;;;5054930;28;20642;-79
2022/06/13 13:12:35;;;;;;;1.70;1.60;;;18.80;99.90;;;;;;5053560;28;20180;-79
2022/06/13 13:15:11;;;;;;;1.92;1.55;;;18.90;99.90;;;;;;5054859;28;20168;-78
2022/06/13 13:17:58;;;;;;;2.95;1.30;;;19.40;99.90;;;;;;5054824;28;20168;-77
2022/06/13 13:20:41;;;;;;;4.15;1.80;;;19.50;99.90;;;;;;5054773;28;20255;-89
2022/06/13 13:23:39;;;;;;;3.17;1.40;;;19.10;99.90;;;;;;5055043;28;20176;-84
2022/06/13 13:26:17;;;;;;;4.05;1.30;;;18.70;99.90;;;;;;5054581;28;20230;-83
2022/06/13 13:28:48;;;;;;;1.30;1.20;;;18.80;99.90;;;;;;5054519;28;20169;-84
2022/06/13 13:31:28;;;;;;;2.67;1.73;;;19.20;99.90;;;;;;5054533;28;20179;-82
2022/06/13 13:33:54;;;;;;;3.05;1.40;;;19.50;99.90;;;;;;5054366;28;20252;-78
2022/06/13 13:36:43;;;;;;;1.85;1.02;;;19.80;99.90;;;;;;5054309;28;20188;-86
2022/06/13 13:39:36;;;;;;;3.58;1.30;;;20.00;99.90;;;;;;5054319;28;20165;-75
2022/06/13 13:42:18;;;;;;;1.60;1.10;;;20.00;99.90;;;;;;5053011;28;20171;-74
2022/06/13 13:44:56;;;;;;;5.05;1.50;;;20.20;99.90;;;;;;5054049;28;20169;-75
2022/06/13 13:47:22;;;;;;;3.05;1.60;;;20.40;99.90;;;;;;5054062;28;20522;-70
2022/06/13 13:50:12;;;;;;;1.98;1.20;;;19.80;99.90;;;;;;5054013;28;20173;-69
2022/06/13 13:52:41;;;;;;;2.30;1.20;;;19.10;99.90;;;;;;5053462;28;20225;-84
2022/06/13 13:55:34;;;;;;;5.80;1.58;;;18.80;99.90;;;;;;5054080;28;20187;-84
2022/06/13 13:58:09;;;;;;;2.13;1.38;;;18.60;99.90;;;;;;5053852;28;20206;-86
2022/06/13 14:00:58;;;;;;;1.95;1.20;;;18.70;99.90;;;;;;5054324;28;20164;-87
2022/06/13 14:03:36;;;;;;;1.65;1.30;;;19.50;99.90;;;;;;5053762;28;20195;-90
2022/06/13 14:06:20;;;;;;;2.05;1.50;;;19.90;99.90;;;;;;5054188;28;20171;-79
2022/06/13 14:08:53;;;;;;;1.40;1.30;;;19.80;99.90;;;;;;5052439;28;20182;-76
2022/06/13 14:11:23;;;;;;;2.40;1.35;;;20.00;99.90;;;;;;5053401;28;20168;-76
2022/06/13 14:14:04;;;;;;;1.95;1.55;;;20.00;99.90;;;;;;5053163;28;20189;-84
2022/06/13 14:16:50;;;;;;;1.20;1.10;;;20.20;99.90;;;;;;5053587;28;20579;-83
2022/06/13 14:19:35;;;;;;;1.30;1.20;;;20.10;99.90;;;;;;5052193;28;20169;-82
2022/06/13 14:22:22;;;;;;;3.08;1.20;;;20.20;99.90;;;;;;5053583;28;20172;-85
2022/06/13 14:25:28;;;;;;;2.15;1.23;;;20.60;99.90;;;;;;5053633;28;20169;-84
2022/06/13 14:28:05;;;;;;;2.35;1.48;;;20.90;99.90;;;;;;5048345;28;20184;-83
2022/06/13 14:36:53;;;;;;;2.22;1.27;;;19.80;99.90;;;;;;5053174;28;20605;-83
2022/06/13 14:39:33;;;;;;;5.78;1.20;;;19.30;99.90;;;;;;5053174;28;20634;-83
2022/06/13 14:42:15;;;;;;;5.43;1.48;;;19.50;99.90;;;;;;5052001;28;20580;-83
2022/06/13 14:45:15;;;;;;;4.00;1.10;;;19.70;99.90;;;;;;5053202;28;20642;-81
2022/06/13 14:47:58;;;;;;;1.95;1.20;;;20.00;99.90;;;;;;5053233;28;20164;-84
2022/06/13 14:51:01;;;;;;;1.40;1.30;;;20.20;99.90;;;;;;5053137;28;20169;-83
2022/06/13 14:53:40;;;;;;;2.88;1.30;;;20.50;99.90;;;;;;5052957;28;20727;-87
2022/06/13 14:56:10;;;;;;;2.97;1.67;;;20.90;99.90;;;;;;5051974;28;20235;-84
2022/06/13 14:58:45;;;;;;;2.22;1.38;;;20.90;99.90;;;;;;5053210;28;20160;-83
2022/06/13 15:01:20;;;;;;;5.43;1.40;;;20.80;99.90;;;;;;5051631;28;20176;-81
2022/06/13 15:03:58;;;;;;;1.00;1.00;;;20.90;99.90;;;;;;5052874;28;20254;-82
2022/06/13 15:06:46;;;;;;;2.15;1.50;;;20.90;99.90;;;;;;5053032;28;20175;-79
2022/06/13 15:09:40;;;;;;;3.10;1.40;;;21.40;99.90;;;;;;5052746;28;20577;-79
2022/06/13 15:12:38;;;;;;;1.42;1.20;;;21.70;99.90;;;;;;5051552;28;20517;-77
2022/06/13 15:15:20;;;;;;;4.60;1.50;;;21.70;99.90;;;;;;5054993;28;20172;-77
2022/06/13 15:17:46;;;;;;;3.20;1.40;;;21.90;99.90;;;;;;5056809;28;20222;-78
2022/06/13 15:20:23;;;;;;;5.53;1.25;;;22.10;99.90;;;;;;5056829;28;20526;-77
2022/06/13 15:22:54;;;;;;;2.75;1.85;;;22.20;99.90;;;;;;5056783;28;20176;-77
2022/06/13 15:25:44;;;;;;;1.70;1.27;;;21.80;99.90;;;;;;5056822;28;20176;-84
2022/06/13 15:28:16;;;;;;;3.70;1.25;;;21.70;99.90;;;;;;5056596;28;20266;-81
2022/06/13 15:30:44;;;;;;;2.92;1.10;;;21.40;99.90;;;;;;5056802;28;20172;-81
2022/06/13 15:33:22;;;;;;;2.13;1.30;;;21.10;99.90;;;;;;5055310;28;20204;-82
2022/06/13 15:35:55;;;;;;;2.30;1.27;;;21.10;99.90;;;;;;5056520;28;20180;-82
2022/06/13 15:38:24;;;;;;;2.55;1.20;;;21.40;99.90;;;;;;5056512;28;20238;-84
2022/06/13 15:40:57;;;;;;;3.53;1.27;;;21.70;99.90;;;;;;5055252;28;20255;-84
2022/06/13 15:43:32;;;;;;;2.60;1.20;;;21.50;99.90;;;;;;5056682;28;20164;-85
2022/06/13 15:45:58;;;;;;;1.48;1.30;;;21.10;99.90;;;;;;5056475;28;20234;-85
2022/06/13 15:48:25;;;;;;;1.10;1.10;;;20.70;99.90;;;;;;5055140;28;20210;-87
2022/06/13 15:51:30;;;;;;;4.43;1.45;;;20.70;99.90;;;;;;5056456;28;20570;-82
2022/06/13 15:54:18;;;;;;;2.38;1.38;;;20.70;99.90;;;;;;5054471;28;20318;-83
2022/06/13 15:56:45;;;;;;;1.75;1.27;;;20.30;99.90;;;;;;5054829;28;20176;-76
2022/06/13 15:59:15;;;;;;;2.30;1.25;;;20.00;99.90;;;;;;5056246;28;20172;-82
2022/06/13 16:01:54;;;;;;;1.20;1.10;;;20.20;99.90;;;;;;5055821;28;20218;-85
2022/06/13 16:04:25;;;;;;;5.88;1.45;;;20.20;99.90;;;;;;5056114;28;20184;-82
2022/06/13 16:06:57;;;;;;;5.47;1.40;;;20.20;99.90;;;;;;5056065;28;20720;-82
2022/06/13 16:09:28;;;;;;;2.65;1.33;;;20.80;99.90;;;;;;5054737;28;20544;-73
2022/06/13 16:12:05;;;;;;;6.50;1.40;;;20.80;99.90;;;;;;5055930;28;20703;-73
2022/06/13 16:14:33;;;;;;;4.47;1.35;;;21.10;99.90;;;;;;5055905;28;20204;-73
2022/06/13 16:17:03;;;;;;;1.63;1.17;;;21.20;99.90;;;;;;5055881;28;20169;-73
2022/06/13 16:19:32;;;;;;;4.22;1.23;;;21.20;99.90;;;;;;5055738;28;20176;-73
2022/06/13 16:22:00;;;;;;;1.50;1.40;;;21.60;99.90;;;;;;5055784;28;20244;-74
2022/06/13 16:24:30;;;;;;;3.83;1.95;;;21.40;99.90;;;;;;5055650;28;20283;-74
2022/06/13 16:26:57;;;;;;;6.72;1.60;;;21.30;99.90;;;;;;5055184;28;20302;-74
2022/06/13 16:29:24;;;;;;;2.50;1.30;;;20.90;99.90;;;;;;5055698;28;20168;-74
2022/06/13 16:31:50;;;;;;;4.93;1.45;;;20.40;99.90;;;;;;5055603;28;20173;-74
2022/06/13 16:34:19;;;;;;;1.35;1.20;;;20.50;99.90;;;;;;5055462;28;20687;-74
2022/06/13 16:36:50;;;;;;;2.22;1.25;;;21.00;99.90;;;;;;5055400;28;20692;-74
2022/06/13 16:39:20;;;;;;;5.15;1.50;;;21.40;99.90;;;;;;5055423;28;20172;-73
2022/06/13 16:41:59;;;;;;;1.83;1.67;;;22.10;99.90;;;;;;5055322;28;20218;-74
2022/06/13 16:44:38;;;;;;;5.38;1.42;;;22.20;99.90;;;;;;5055410;28;20215;-73
2022/06/13 16:47:21;;;;;;;1.73;1.33;;;22.20;99.90;;;;;;5055326;28;20183;-74
2022/06/13 16:49:53;;;;;;;1.65;1.20;;;22.30;99.90;;;;;;5055241;28;20177;-74
2022/06/13 16:52:22;;;;;;;2.47;1.35;;;22.10;99.90;;;;;;5054940;28;20168;-74
2022/06/13 16:55:03;;;;;;;1.67;1.33;;;21.80;99.90;;;;;;5055085;28;20192;-74
2022/06/13 16:57:47;;;;;;;1.85;1.55;;;21.90;99.90;;;;;;5053737;28;20637;-74
2022/06/13 17:00:24;;;;;;;3.90;1.50;;;22.00;99.90;;;;;;5053747;28;20180;-74
2022/06/13 17:03:00;;;;;;;2.28;1.45;;;21.70;99.90;;;;;;5053978;28;20176;-74
2022/06/13 17:05:34;;;;;;;1.20;0.98;;;21.40;99.90;;;;;;5055014;28;20255;-73
2022/06/13 17:08:10;;;;;;;2.70;1.45;;;20.60;99.90;;;;;;5054954;28;20165;-74
2022/06/13 17:10:48;;;;;;;1.20;1.10;;;20.50;99.90;;;;;;5054900;28;20180;-74
2022/06/13 17:13:18;;;;;;;6.63;1.70;;;21.00;99.90;;;;;;5054642;28;20199;-74
2022/06/13 17:15:46;;;;;;;1.52;1.30;;;21.10;99.90;;;;;;5054625;28;20246;-74
2022/06/13 17:18:14;;;;;;;1.92;1.40;;;21.10;99.90;;;;;;5054700;28;20176;-74
2022/06/13 17:20:43;;;;;;;2.00;1.40;;;21.20;99.90;;;;;;5054573;28;20165;-74
2022/06/13 17:23:10;;;;;;;3.53;1.42;;;21.40;99.90;;;;;;5054574;28;20252;-74
2022/06/13 17:33:53;;;;;;;2.72;1.35;;;21.10;99.90;;;;;;5054522;28;20262;-74
2022/06/13 17:36:18;;;;;;;3.67;1.50;;;21.00;99.90;;;;;;5054055;28;20539;-74
2022/06/13 17:38:44;;;;;;;11.40;2.15;;;20.90;99.90;;;;;;5053757;28;20207;-74
2022/06/13 17:41:10;;;;;;;1.45;1.33;;;20.70;99.90;;;;;;5054223;28;20168;-74
2022/06/13 17:43:36;;;;;;;2.28;1.63;;;20.30;99.90;;;;;;5054150;28;20522;-73
2022/06/13 17:46:02;;;;;;;3.63;1.80;;;20.10;99.90;;;;;;5054072;28;20164;-74
2022/06/13 17:48:28;;;;;;;1.30;1.17;;;20.10;99.90;;;;;;5054112;28;20198;-73
2022/06/13 17:50:54;;;;;;;1.63;1.52;;;20.30;99.90;;;;;;5054078;28;20181;-74
2022/06/13 17:53:19;;;;;;;1.58;1.33;;;20.70;99.90;;;;;;5053776;28;20555;-74
2022/06/13 17:55:45;;;;;;;2.47;1.00;;;20.70;99.90;;;;;;5053755;28;20250;-73
2022/06/13 17:58:11;;;;;;;3.08;1.65;;;20.70;99.90;;;;;;5053822;28;20214;-74
2022/06/13 18:00:43;;;;;;;1.27;1.17;;;20.70;99.90;;;;;;5053903;28;20165;-74
2022/06/13 18:03:09;;;;;;;2.55;1.10;;;20.60;99.90;;;;;;5052615;28;20180;-74
2022/06/13 18:05:38;;;;;;;5.25;1.20;;;20.80;99.90;;;;;;5053803;28;20200;-73
2022/06/13 18:08:07;;;;;;;2.53;1.25;;;21.00;99.90;;;;;;5053723;28;20172;-74
2022/06/13 18:10:33;;;;;;;1.33;1.23;;;21.00;99.90;;;;;;5053662;28;20199;-73
2022/06/13 18:12:59;;;;;;;5.22;1.17;;;21.00;99.90;;;;;;5053413;28;20681;-74
2022/06/13 18:15:25;;;;;;;3.38;1.60;;;21.00;99.90;;;;;;5053546;28;20164;-73
2022/06/13 18:17:51;;;;;;;10.25;1.30;;;20.80;99.90;;;;;;5053506;28;20176;-73
2022/06/13 18:20:20;;;;;;;1.02;1.02;;;20.70;99.90;;;;;;5053472;28;20520;-73
2022/06/13 18:22:47;;;;;;;1.40;0.90;;;20.70;99.90;;;;;;5053352;28;20172;-73
2022/06/13 18:25:13;;;;;;;3.10;1.33;;;20.50;99.90;;;;;;5053356;28;20176;-74
2022/06/13 18:27:41;;;;;;;3.72;1.23;;;20.30;99.90;;;;;;5053360;28;20723;-73
2022/06/13 18:30:12;;;;;;;1.40;0.95;;;20.30;99.90;;;;;;5053244;28;20177;-73
2022/06/13 18:32:39;;;;;;;2.08;1.65;;;20.30;99.90;;;;;;5053254;28;20178;-73
2022/06/13 18:35:04;;;;;;;1.63;1.10;;;20.40;99.90;;;;;;5053255;28;20184;-74
2022/06/13 18:37:30;;;;;;;2.28;1.05;;;20.70;99.90;;;;;;5053122;28;20697;-73
2022/06/13 18:39:56;;;;;;;1.38;1.00;;;20.80;99.90;;;;;;5053114;28;20164;-73
2022/06/13 18:42:22;;;;;;;4.07;1.38;;;20.90;99.90;;;;;;5052978;28;20164;-73
2022/06/13 18:44:48;;;;;;;1.98;1.13;;;21.00;99.90;;;;;;5053058;28;20645;-73
2022/06/13 18:47:20;;;;;;;5.68;1.30;;;21.00;99.90;;;;;;5053115;28;20181;-74
2022/06/13 18:49:47;;;;;;;1.75;1.50;;;21.30;99.90;;;;;;5052747;28;20160;-74
2022/06/13 18:52:13;;;;;;;3.10;0.90;;;21.40;99.90;;;;;;5052636;28;20561;-74
2022/06/13 18:54:40;;;;;;;2.22;1.35;;;21.30;99.90;;;;;;5052940;28;20207;-74
2022/06/13 18:57:06;;;;;;;5.15;1.15;;;21.10;99.90;;;;;;5052996;28;20211;-74
2022/06/13 18:59:32;;;;;;;3.53;1.50;;;20.80;99.90;;;;;;5052951;28;20168;-74
2022/06/13 19:01:58;;;;;;;2.60;1.02;;;20.80;99.90;;;;;;5052778;28;20167;-74
2022/06/13 19:04:27;;;;;;;2.45;1.30;;;20.80;99.90;;;;;;5052757;28;20548;-73
2022/06/13 19:06:55;;;;;;;2.03;1.00;;;20.70;99.90;;;;;;5052870;28;20168;-74
2022/06/13 19:09:22;;;;;;;2.17;1.52;;;20.70;99.90;;;;;;5052764;28;20700;-73
2022/06/13 19:11:50;;;;;;;1.13;1.13;;;20.70;99.90;;;;;;5052860;28;20218;-73
2022/06/13 19:14:20;;;;;;;0.80;0.80;;;20.60;99.90;;;;;;5052723;28;20231;-73
2022/06/13 19:16:46;;;;;;;5.43;1.20;;;20.20;99.90;;;;;;5052815;28;20184;-73
2022/06/13 19:19:14;;;;;;;1.52;1.33;;;19.90;99.90;;;;;;5052830;28;20637;-73
2022/06/13 19:21:41;;;;;;;1.13;1.00;;;19.40;99.90;;;;;;5052728;28;20164;-74
2022/06/13 19:24:07;;;;;;;1.30;1.20;;;19.10;99.90;;;;;;5052772;28;20177;-73
2022/06/13 19:26:33;;;;;;;5.00;1.70;;;18.80;99.90;;;;;;5052722;28;20234;-73
